createdAt,value
2022-12-15T00:00:56.407Z,-4.96
2022-12-15T00:01:58.079Z,-4.95
2022-12-15T00:03:00.005Z,-4.95
2022-12-15T00:04:01.603Z,-4.95
2022-12-15T00:05:03.256Z,-4.93
2022-12-15T00:06:04.998Z,-4.92
2022-12-15T00:07:06.778Z,-4.89
2022-12-15T00:08:08.463Z,-4.89
2022-12-15T00:09:14.199Z,-4.87
2022-12-15T00:10:11.931Z,-4.86
2022-12-15T00:11:13.682Z,-4.81
2022-12-15T00:12:15.398Z,-4.81
2022-12-15T00:13:17.129Z,-4.8
2022-12-15T00:14:18.853Z,-4.78
2022-12-15T00:15:20.596Z,-4.78
2022-12-15T00:16:22.380Z,-4.76
2022-12-15T00:17:24.067Z,-4.76
2022-12-15T00:18:25.803Z,-4.75
2022-12-15T00:19:27.530Z,-4.72
2022-12-15T00:20:29.275Z,-4.71
2022-12-15T00:21:31.024Z,-4.7
2022-12-15T00:22:32.730Z,-4.69
2022-12-15T00:23:34.470Z,-4.68
2022-12-15T00:24:36.202Z,-4.66
2022-12-15T00:25:37.952Z,-4.65
2022-12-15T00:26:39.709Z,-4.63
2022-12-15T00:27:41.408Z,-4.61
2022-12-15T00:28:43.145Z,-4.61
2022-12-15T00:29:44.879Z,-4.6
2022-12-15T00:30:49.784Z,-4.6
2022-12-15T00:31:48.402Z,-4.59
2022-12-15T00:32:50.085Z,-4.59
2022-12-15T00:33:51.803Z,-4.58
2022-12-15T00:34:53.564Z,-4.58
2022-12-15T00:35:55.294Z,-4.58
2022-12-15T00:36:57.015Z,-4.58
2022-12-15T00:37:58.745Z,-4.59
2022-12-15T00:39:03.714Z,-4.58
2022-12-15T00:40:02.208Z,-4.6
2022-12-15T00:41:03.961Z,-4.6
2022-12-15T00:42:05.683Z,-4.6
2022-12-15T00:43:07.415Z,-4.62
2022-12-15T00:44:09.144Z,-4.64
2022-12-15T00:45:10.882Z,-4.64
2022-12-15T00:46:12.680Z,-4.63
2022-12-15T00:47:14.343Z,-4.66
2022-12-15T00:48:16.072Z,-4.68
2022-12-15T00:49:17.800Z,-4.67
2022-12-15T00:50:19.551Z,-4.69
2022-12-15T00:51:21.299Z,-4.71
2022-12-15T00:52:23.016Z,-4.73
2022-12-15T00:53:24.750Z,-4.74
2022-12-15T00:54:26.484Z,-4.74
2022-12-15T00:55:28.210Z,-4.77
2022-12-15T00:56:29.954Z,-4.78
2022-12-15T00:57:31.673Z,-4.8
2022-12-15T00:58:33.414Z,-4.82
2022-12-15T00:59:35.155Z,-4.85
2022-12-15T01:00:36.878Z,-4.87
2022-12-15T01:01:38.731Z,-4.87
2022-12-15T01:02:40.514Z,-4.89
2022-12-15T01:03:42.231Z,-4.9
2022-12-15T01:04:43.832Z,-4.94
2022-12-15T01:05:45.552Z,-4.95
2022-12-15T01:06:47.284Z,-4.96
2022-12-15T01:07:49.597Z,-4.99
2022-12-15T01:08:50.757Z,-5.02
2022-12-15T01:09:52.478Z,-5.02
2022-12-15T01:10:54.227Z,-5.03
2022-12-15T01:11:55.948Z,-5.06
2022-12-15T01:12:57.676Z,-5.08
2022-12-15T01:13:59.425Z,-5.1
2022-12-15T01:15:01.155Z,-5.11
2022-12-15T01:16:02.997Z,-5.12
2022-12-15T01:17:04.618Z,-5.11
2022-12-15T01:18:06.343Z,-5.14
2022-12-15T01:19:08.096Z,-5.14
2022-12-15T01:20:09.829Z,-5.15
2022-12-15T01:21:11.574Z,-5.16
2022-12-15T01:22:13.281Z,-5.18
2022-12-15T01:23:15.025Z,-5.18
2022-12-15T01:24:16.752Z,-5.2
2022-12-15T01:25:18.492Z,-5.22
2022-12-15T01:26:20.270Z,-5.23
2022-12-15T01:27:21.961Z,-5.23
2022-12-15T01:28:23.695Z,-5.26
2022-12-15T01:29:25.426Z,-5.26
2022-12-15T01:30:27.155Z,-5.25
2022-12-15T01:31:28.975Z,-5.29
2022-12-15T01:32:30.627Z,-5.28
2022-12-15T01:33:32.804Z,-5.29
2022-12-15T01:34:34.098Z,-5.3
2022-12-15T01:35:35.811Z,-5.32
2022-12-15T01:36:37.553Z,-5.32
2022-12-15T01:37:39.288Z,-5.31
2022-12-15T01:38:41.025Z,-5.34
2022-12-15T01:39:42.774Z,-5.35
2022-12-15T01:40:44.502Z,-5.35
2022-12-15T01:41:46.249Z,-5.37
2022-12-15T01:42:47.965Z,-5.38
2022-12-15T01:43:49.993Z,-5.41
2022-12-15T01:44:51.437Z,-5.41
2022-12-15T01:45:53.172Z,-5.45
2022-12-15T01:46:54.974Z,-5.46
2022-12-15T01:47:56.636Z,-5.5
2022-12-15T01:48:58.371Z,-5.53
2022-12-15T01:50:00.137Z,-5.56
2022-12-15T01:51:01.851Z,-5.57
2022-12-15T01:52:03.580Z,-5.59
2022-12-15T01:53:05.304Z,-5.62
2022-12-15T01:54:07.027Z,-5.65
2022-12-15T01:55:08.761Z,-5.66
2022-12-15T01:56:10.506Z,-5.67
2022-12-15T01:57:12.237Z,-5.7
2022-12-15T01:58:13.971Z,-5.7
2022-12-15T01:59:15.714Z,-5.71
2022-12-15T02:00:17.436Z,-5.72
2022-12-15T02:01:19.293Z,-5.74
2022-12-15T02:02:21.064Z,-5.75
2022-12-15T02:03:22.663Z,-5.75
2022-12-15T02:04:24.368Z,-5.77
2022-12-15T02:05:26.108Z,-5.79
2022-12-15T02:06:27.837Z,-5.8
2022-12-15T02:07:29.569Z,-5.82
2022-12-15T02:08:31.304Z,-5.82
2022-12-15T02:09:33.037Z,-5.85
2022-12-15T02:10:34.776Z,-5.84
2022-12-15T02:11:36.529Z,-5.85
2022-12-15T02:12:38.230Z,-5.85
2022-12-15T02:13:39.958Z,-5.86
2022-12-15T02:14:41.709Z,-5.87
2022-12-15T02:15:43.448Z,-5.87
2022-12-15T02:16:45.301Z,-5.86
2022-12-15T02:17:46.911Z,-5.84
2022-12-15T02:18:48.649Z,-5.86
2022-12-15T02:19:50.382Z,-5.84
2022-12-15T02:20:52.114Z,-5.86
2022-12-15T02:21:53.832Z,-5.86
2022-12-15T02:22:55.581Z,-5.87
2022-12-15T02:23:57.308Z,-5.86
2022-12-15T02:24:59.040Z,-5.85
2022-12-15T02:26:00.794Z,-5.86
2022-12-15T02:27:02.508Z,-5.85
2022-12-15T02:28:04.257Z,-5.85
2022-12-15T02:29:05.980Z,-5.87
2022-12-15T02:30:07.710Z,-5.87
2022-12-15T02:31:09.540Z,-5.87
2022-12-15T02:32:11.210Z,-5.86
2022-12-15T02:33:12.906Z,-5.89
2022-12-15T02:34:14.646Z,-5.89
2022-12-15T02:35:16.367Z,-5.9
2022-12-15T02:36:18.115Z,-5.9
2022-12-15T02:37:19.852Z,-5.91
2022-12-15T02:38:21.568Z,-5.91
2022-12-15T02:39:23.307Z,-5.94
2022-12-15T02:40:25.053Z,-5.92
2022-12-15T02:41:26.786Z,-5.96
2022-12-15T02:42:28.518Z,-5.96
2022-12-15T02:43:30.707Z,-5.96
2022-12-15T02:44:31.967Z,-5.99
2022-12-15T02:45:33.793Z,-6
2022-12-15T02:46:35.457Z,-6.01
2022-12-15T02:47:37.183Z,-6.02
2022-12-15T02:48:38.901Z,-6.05
2022-12-15T02:49:40.646Z,-6.04
2022-12-15T02:50:42.398Z,-6.09
2022-12-15T02:51:44.123Z,-6.09
2022-12-15T02:52:45.846Z,-6.11
2022-12-15T02:53:47.614Z,-6.12
2022-12-15T02:54:49.311Z,-6.12
2022-12-15T02:55:51.049Z,-6.13
2022-12-15T02:56:52.778Z,-6.15
2022-12-15T02:57:54.518Z,-6.16
2022-12-15T02:58:56.244Z,-6.17
2022-12-15T02:59:57.981Z,-6.19
2022-12-15T03:00:59.754Z,-6.19
2022-12-15T03:02:01.836Z,-6.2
2022-12-15T03:03:03.403Z,-6.22
2022-12-15T03:04:04.931Z,-6.21
2022-12-15T03:05:06.663Z,-6.24
2022-12-15T03:06:08.384Z,-6.23
2022-12-15T03:07:10.134Z,-6.23
2022-12-15T03:08:11.865Z,-6.25
2022-12-15T03:09:13.599Z,-6.25
2022-12-15T03:10:15.327Z,-6.26
2022-12-15T03:11:17.065Z,-6.24
2022-12-15T03:12:18.789Z,-6.23
2022-12-15T03:13:20.520Z,-6.23
2022-12-15T03:14:22.350Z,-6.25
2022-12-15T03:15:23.986Z,-6.24
2022-12-15T03:16:25.765Z,-6.26
2022-12-15T03:17:27.456Z,-6.27
2022-12-15T03:18:29.197Z,-6.25
2022-12-15T03:19:30.927Z,-6.27
2022-12-15T03:20:32.651Z,-6.29
2022-12-15T03:21:34.422Z,-6.29
2022-12-15T03:22:36.133Z,-6.29
2022-12-15T03:23:37.855Z,-6.31
2022-12-15T03:24:39.581Z,-6.3
2022-12-15T03:25:41.324Z,-6.33
2022-12-15T03:26:43.079Z,-6.33
2022-12-15T03:27:44.791Z,-6.32
2022-12-15T03:28:46.531Z,-6.35
2022-12-15T03:29:48.264Z,-6.35
2022-12-15T03:30:50.440Z,-6.36
2022-12-15T03:31:51.796Z,-6.39
2022-12-15T03:32:53.480Z,-6.39
2022-12-15T03:33:55.184Z,-6.42
2022-12-15T03:34:56.939Z,-6.44
2022-12-15T03:35:58.674Z,-6.45
2022-12-15T03:37:00.393Z,-6.47
2022-12-15T03:38:02.153Z,-6.47
2022-12-15T03:39:03.877Z,-6.48
2022-12-15T03:40:05.587Z,-6.51
2022-12-15T03:41:07.373Z,-6.5
2022-12-15T03:42:09.075Z,-6.53
2022-12-15T03:43:10.803Z,-6.51
2022-12-15T03:44:12.542Z,-6.54
2022-12-15T03:45:14.291Z,-6.54
2022-12-15T03:46:16.110Z,-6.55
2022-12-15T03:47:17.732Z,-6.54
2022-12-15T03:48:19.474Z,-6.54
2022-12-15T03:49:21.207Z,-6.54
2022-12-15T03:50:22.933Z,-6.54
2022-12-15T03:51:24.702Z,-6.55
2022-12-15T03:52:26.422Z,-6.55
2022-12-15T03:53:28.505Z,-6.55
2022-12-15T03:54:29.879Z,-6.53
2022-12-15T03:55:31.612Z,-6.52
2022-12-15T03:56:33.362Z,-6.53
2022-12-15T03:57:35.076Z,-6.52
2022-12-15T03:58:36.812Z,-6.5
2022-12-15T03:59:38.560Z,-6.51
2022-12-15T04:00:40.277Z,-6.51
2022-12-15T04:01:42.246Z,-6.5
2022-12-15T04:02:43.859Z,-6.5
2022-12-15T04:03:45.598Z,-6.48
2022-12-15T04:04:47.248Z,-6.48
2022-12-15T04:05:48.953Z,-6.5
2022-12-15T04:06:50.700Z,-6.5
2022-12-15T04:07:52.419Z,-6.51
2022-12-15T04:08:54.160Z,-6.51
2022-12-15T04:09:55.903Z,-6.5
2022-12-15T04:10:57.659Z,-6.52
2022-12-15T04:11:59.362Z,-6.5
2022-12-15T04:13:01.104Z,-6.5
2022-12-15T04:14:02.834Z,-6.51
2022-12-15T04:15:04.579Z,-6.51
2022-12-15T04:16:06.312Z,-6.51
2022-12-15T04:17:08.163Z,-6.52
2022-12-15T04:18:09.769Z,-6.51
2022-12-15T04:19:11.507Z,-6.53
2022-12-15T04:20:13.247Z,-6.54
2022-12-15T04:21:14.986Z,-6.54
2022-12-15T04:22:18.194Z,-6.56
2022-12-15T04:23:18.448Z,-6.56
2022-12-15T04:24:20.169Z,-6.56
2022-12-15T04:25:21.904Z,-6.55
2022-12-15T04:26:23.654Z,-6.57
2022-12-15T04:27:25.375Z,-6.57
2022-12-15T04:28:27.121Z,-6.57
2022-12-15T04:29:28.886Z,-6.57
2022-12-15T04:30:30.701Z,-6.55
2022-12-15T04:31:32.388Z,-6.56
2022-12-15T04:32:34.052Z,-6.57
2022-12-15T04:33:36.322Z,-6.54
2022-12-15T04:34:37.551Z,-6.55
2022-12-15T04:35:39.255Z,-6.55
2022-12-15T04:36:40.998Z,-6.54
2022-12-15T04:37:42.735Z,-6.54
2022-12-15T04:38:50.114Z,-6.54
2022-12-15T04:39:46.187Z,-6.52
2022-12-15T04:40:47.910Z,-6.55
2022-12-15T04:41:49.655Z,-6.54
2022-12-15T04:42:51.388Z,-6.55
2022-12-15T04:43:53.120Z,-6.56
2022-12-15T04:44:54.861Z,-6.56
2022-12-15T04:45:56.609Z,-6.55
2022-12-15T04:46:58.311Z,-6.55
2022-12-15T04:48:00.035Z,-6.57
2022-12-15T04:49:01.781Z,-6.57
2022-12-15T04:50:03.558Z,-6.56
2022-12-15T04:51:06.707Z,-6.55
2022-12-15T04:52:06.977Z,-6.55
2022-12-15T04:53:08.725Z,-6.54
2022-12-15T04:54:10.441Z,-6.57
2022-12-15T04:55:12.208Z,-6.57
2022-12-15T04:56:18.433Z,-6.55
2022-12-15T04:57:15.676Z,-6.56
2022-12-15T04:58:17.413Z,-6.57
2022-12-15T04:59:19.132Z,-6.57
2022-12-15T05:00:20.864Z,-6.56
2022-12-15T05:01:22.849Z,-6.58
2022-12-15T05:02:24.442Z,-6.58
2022-12-15T05:03:26.075Z,-6.59
2022-12-15T05:04:27.854Z,-6.59
2022-12-15T05:05:29.539Z,-6.59
2022-12-15T05:06:31.294Z,-6.6
2022-12-15T05:07:32.995Z,-6.58
2022-12-15T05:08:34.751Z,-6.6
2022-12-15T05:09:36.472Z,-6.59
2022-12-15T05:10:38.195Z,-6.58
2022-12-15T05:11:39.962Z,-6.6
2022-12-15T05:12:41.681Z,-6.59
2022-12-15T05:13:43.415Z,-6.6
2022-12-15T05:14:45.148Z,-6.6
2022-12-15T05:15:47.005Z,-6.59
2022-12-15T05:16:48.649Z,-6.61
2022-12-15T05:17:50.346Z,-6.6
2022-12-15T05:18:52.072Z,-6.61
2022-12-15T05:19:53.818Z,-6.62
2022-12-15T05:20:55.546Z,-6.63
2022-12-15T05:21:57.299Z,-6.63
2022-12-15T05:22:59.006Z,-6.64
2022-12-15T05:24:00.743Z,-6.62
2022-12-15T05:25:02.507Z,-6.63
2022-12-15T05:26:04.205Z,-6.64
2022-12-15T05:27:05.940Z,-6.62
2022-12-15T05:28:07.687Z,-6.62
2022-12-15T05:29:09.428Z,-6.62
2022-12-15T05:30:11.150Z,-6.61
2022-12-15T05:31:13.040Z,-6.61
2022-12-15T05:32:14.624Z,-6.61
2022-12-15T05:33:26.710Z,-6.61
2022-12-15T05:34:33.905Z,-6.59
2022-12-15T05:36:13.696Z,-6.6
2022-12-15T05:37:18.242Z,-6.61
2022-12-15T05:38:20.002Z,-6.59
2022-12-15T05:39:21.689Z,-6.59
2022-12-15T05:40:23.435Z,-6.6
2022-12-15T05:41:25.188Z,-6.6
2022-12-15T05:42:26.897Z,-6.57
2022-12-15T05:43:29.101Z,-6.57
2022-12-15T05:44:30.360Z,-6.59
2022-12-15T05:45:32.114Z,-6.57
2022-12-15T05:46:33.917Z,-6.56
2022-12-15T05:47:35.586Z,-6.57
2022-12-15T05:48:37.309Z,-6.55
2022-12-15T05:49:39.066Z,-6.55
2022-12-15T05:50:40.768Z,-6.51
2022-12-15T05:51:42.602Z,-6.5
2022-12-15T05:52:49.129Z,-6.46
2022-12-15T05:53:45.969Z,-6.43
2022-12-15T05:54:47.715Z,-6.41
2022-12-15T05:55:49.441Z,-6.38
2022-12-15T05:56:51.177Z,-6.36
2022-12-15T05:57:52.905Z,-6.32
2022-12-15T05:58:54.653Z,-6.32
2022-12-15T05:59:56.376Z,-6.3
2022-12-15T06:00:58.097Z,-6.29
2022-12-15T06:01:59.972Z,-6.28
2022-12-15T06:03:01.607Z,-6.24
2022-12-15T06:04:03.344Z,-6.24
2022-12-15T06:05:05.114Z,-6.23
2022-12-15T06:06:06.845Z,-6.21
2022-12-15T06:07:08.502Z,-6.2
2022-12-15T06:08:10.257Z,-6.22
2022-12-15T06:09:11.984Z,-6.21
2022-12-15T06:10:13.699Z,-6.21
2022-12-15T06:11:15.455Z,-6.23
2022-12-15T06:12:17.180Z,-6.23
2022-12-15T06:13:18.917Z,-6.23
2022-12-15T06:14:20.745Z,-6.24
2022-12-15T06:15:22.382Z,-6.24
2022-12-15T06:16:24.286Z,-6.24
2022-12-15T06:17:25.859Z,-6.22
2022-12-15T06:18:27.591Z,-6.22
2022-12-15T06:19:29.306Z,-6.21
2022-12-15T06:20:31.043Z,-6.21
2022-12-15T06:21:32.801Z,-6.22
2022-12-15T06:22:34.535Z,-6.23
2022-12-15T06:23:36.255Z,-6.23
2022-12-15T06:24:37.985Z,-6.22
2022-12-15T06:25:39.721Z,-6.23
2022-12-15T06:26:41.455Z,-6.24
2022-12-15T06:27:43.199Z,-6.23
2022-12-15T06:28:44.927Z,-6.24
2022-12-15T06:29:46.659Z,-6.24
2022-12-15T06:30:48.395Z,-6.22
2022-12-15T06:31:50.149Z,-6.21
2022-12-15T06:32:51.858Z,-6.22
2022-12-15T06:34:00.984Z,-6.19
2022-12-15T06:34:55.347Z,-6.18
2022-12-15T06:35:57.052Z,-6.17
2022-12-15T06:36:58.800Z,-6.14
2022-12-15T06:38:00.512Z,-6.12
2022-12-15T06:39:02.252Z,-6.1
2022-12-15T06:40:03.989Z,-6.08
2022-12-15T06:41:05.748Z,-6.06
2022-12-15T06:42:07.474Z,-6.04
2022-12-15T06:43:09.186Z,-6.05
2022-12-15T06:44:10.931Z,-6.03
2022-12-15T06:45:12.648Z,-6.03
2022-12-15T06:46:14.447Z,-6
2022-12-15T06:47:16.123Z,-6.01
2022-12-15T06:48:17.853Z,-5.99
2022-12-15T06:49:19.570Z,-6
2022-12-15T06:50:21.329Z,-5.99
2022-12-15T06:51:23.074Z,-5.98
2022-12-15T06:52:24.780Z,-5.99
2022-12-15T06:53:26.529Z,-6
2022-12-15T06:54:28.269Z,-6
2022-12-15T06:55:29.993Z,-5.99
2022-12-15T06:56:34.085Z,-6
2022-12-15T06:57:33.473Z,-5.99
2022-12-15T06:58:35.214Z,-5.98
2022-12-15T06:59:36.936Z,-5.99
2022-12-15T07:00:38.670Z,-5.98
2022-12-15T07:01:40.671Z,-5.98
2022-12-15T07:02:42.301Z,-5.97
2022-12-15T07:03:44.004Z,-5.98
2022-12-15T07:04:45.607Z,-5.97
2022-12-15T07:05:47.327Z,-5.97
2022-12-15T07:06:49.087Z,-5.96
2022-12-15T07:07:50.786Z,-5.94
2022-12-15T07:08:52.598Z,-5.94
2022-12-15T07:09:54.245Z,-5.94
2022-12-15T07:10:56.001Z,-5.96
2022-12-15T07:11:57.744Z,-5.95
2022-12-15T07:12:59.469Z,-5.94
2022-12-15T07:14:01.207Z,-5.96
2022-12-15T07:15:02.922Z,-5.95
2022-12-15T07:16:04.800Z,-5.95
2022-12-15T07:17:06.389Z,-5.97
2022-12-15T07:18:08.125Z,-5.98
2022-12-15T07:19:09.870Z,-5.97
2022-12-15T07:20:11.590Z,-5.98
2022-12-15T07:21:13.333Z,-6
2022-12-15T07:22:15.055Z,-6.02
2022-12-15T07:23:16.801Z,-6
2022-12-15T07:24:18.532Z,-6.03
2022-12-15T07:25:20.271Z,-6.04
2022-12-15T07:26:22.026Z,-6.02
2022-12-15T07:27:23.727Z,-6.04
2022-12-15T07:28:25.923Z,-6.03
2022-12-15T07:29:27.211Z,-6.03
2022-12-15T07:30:31.374Z,-6.04
2022-12-15T07:31:30.775Z,-6.05
2022-12-15T07:32:32.417Z,-6.06
2022-12-15T07:33:34.441Z,-6.05
2022-12-15T07:34:35.871Z,-6.04
2022-12-15T07:35:37.619Z,-6.05
2022-12-15T07:36:39.349Z,-6.06
2022-12-15T07:37:41.082Z,-6.07
2022-12-15T07:38:42.820Z,-6.05
2022-12-15T07:39:44.537Z,-6.06
2022-12-15T07:40:46.274Z,-6.07
2022-12-15T07:41:48.033Z,-6.06
2022-12-15T07:42:49.754Z,-6.07
2022-12-15T07:43:51.487Z,-6.06
2022-12-15T07:44:53.212Z,-6.08
2022-12-15T07:45:54.965Z,-6.07
2022-12-15T07:46:56.679Z,-6.08
2022-12-15T07:47:58.418Z,-6.09
2022-12-15T07:49:00.132Z,-6.11
2022-12-15T07:50:01.869Z,-6.1
2022-12-15T07:51:09.609Z,-6.11
2022-12-15T07:52:05.363Z,-6.13
2022-12-15T07:53:07.082Z,-6.15
2022-12-15T07:54:08.803Z,-6.17
2022-12-15T07:55:10.572Z,-6.16
2022-12-15T07:56:12.274Z,-6.17
2022-12-15T07:58:58.520Z,-6.2
2022-12-15T08:00:00.249Z,-6.22
2022-12-15T08:01:02.086Z,-6.24
2022-12-15T08:02:04.000Z,-6.24
2022-12-15T08:03:05.569Z,-6.25
2022-12-15T08:04:07.266Z,-6.24
2022-12-15T08:05:08.920Z,-6.26
2022-12-15T08:06:10.653Z,-6.27
2022-12-15T08:07:12.396Z,-6.27
2022-12-15T08:08:15.574Z,-6.26
2022-12-15T08:09:15.846Z,-6.27
2022-12-15T08:10:17.576Z,-6.25
2022-12-15T08:11:19.144Z,-6.26
2022-12-15T08:12:20.820Z,-6.27
2022-12-15T08:14:00.226Z,-6.24
2022-12-15T08:14:24.908Z,-6.24
2022-12-15T08:15:26.174Z,-6.22
2022-12-15T08:16:27.879Z,-6.2
2022-12-15T08:17:29.574Z,-6.19
2022-12-15T08:18:31.209Z,-6.18
2022-12-15T08:19:33.028Z,-6.18
2022-12-15T08:20:34.703Z,-6.16
2022-12-15T08:21:36.666Z,-6.13
2022-12-15T08:22:38.156Z,-6.12
2022-12-15T08:23:39.895Z,-6.12
2022-12-15T08:24:41.661Z,-6.09
2022-12-15T08:25:43.367Z,-6.07
2022-12-15T08:26:45.150Z,-6.09
2022-12-15T08:27:46.845Z,-6.06
2022-12-15T08:28:48.559Z,-6.04
2022-12-15T08:29:51.789Z,-6.02
2022-12-15T08:30:52.030Z,-6.02
2022-12-15T08:31:53.893Z,-5.99
2022-12-15T08:32:55.502Z,-5.97
2022-12-15T08:33:57.271Z,-5.96
2022-12-15T08:34:58.951Z,-5.95
2022-12-15T08:36:00.699Z,-5.92
2022-12-15T08:37:02.437Z,-5.9
2022-12-15T08:38:05.865Z,-5.89
2022-12-15T08:39:05.911Z,-5.87
2022-12-15T08:40:07.642Z,-5.85
2022-12-15T08:41:09.377Z,-5.81
2022-12-15T08:42:11.096Z,-5.79
2022-12-15T08:43:12.814Z,-5.77
2022-12-15T08:44:14.557Z,-5.74
2022-12-15T08:45:16.300Z,-5.73
2022-12-15T08:46:18.188Z,-5.7
2022-12-15T08:47:19.774Z,-5.67
2022-12-15T08:48:21.514Z,-5.65
2022-12-15T08:49:23.231Z,-5.64
2022-12-15T08:50:25.021Z,-5.62
2022-12-15T08:51:26.716Z,-5.6
2022-12-15T08:52:28.414Z,-5.59
2022-12-15T08:53:31.920Z,-5.57
2022-12-15T08:54:31.891Z,-5.54
2022-12-15T08:55:33.622Z,-5.53
2022-12-15T08:56:35.372Z,-5.52
2022-12-15T08:57:37.088Z,-5.47
2022-12-15T08:58:38.848Z,-5.47
2022-12-15T08:59:40.553Z,-5.45
2022-12-15T09:00:42.317Z,-5.43
2022-12-15T09:01:44.273Z,-5.39
2022-12-15T09:02:45.840Z,-5.38
2022-12-15T09:03:47.485Z,-5.39
2022-12-15T09:04:49.278Z,-5.4
2022-12-15T09:05:50.957Z,-5.39
2022-12-15T09:06:52.723Z,-5.37
2022-12-15T09:07:54.427Z,-5.37
2022-12-15T09:08:56.157Z,-5.36
2022-12-15T09:09:57.910Z,-5.37
2022-12-15T09:10:59.632Z,-5.36
2022-12-15T09:12:01.381Z,-5.35
2022-12-15T09:13:03.079Z,-5.34
2022-12-15T09:14:04.816Z,-5.34
2022-12-15T09:15:06.555Z,-5.32
2022-12-15T09:16:10.404Z,-5.32
2022-12-15T09:17:10.085Z,-5.33
2022-12-15T09:18:11.741Z,-5.3
2022-12-15T09:19:13.491Z,-5.32
2022-12-15T09:20:17.835Z,-5.3
2022-12-15T09:21:16.962Z,-5.3
2022-12-15T09:22:18.697Z,-5.28
2022-12-15T09:23:20.422Z,-5.28
2022-12-15T09:24:29.181Z,-5.28
2022-12-15T09:25:23.892Z,-5.25
2022-12-15T09:26:25.620Z,-5.25
2022-12-15T09:27:27.364Z,-5.28
2022-12-15T09:28:29.115Z,-5.24
2022-12-15T09:29:30.828Z,-5.24
2022-12-15T09:30:32.610Z,-5.24
2022-12-15T09:31:34.311Z,-5.24
2022-12-15T09:32:36.025Z,-5.23
2022-12-15T09:33:37.743Z,-5.25
2022-12-15T09:34:39.495Z,-5.24
2022-12-15T09:35:41.237Z,-5.21
2022-12-15T09:36:42.956Z,-5.21
2022-12-15T09:37:49.985Z,-5.21
2022-12-15T09:38:46.420Z,-5.19
2022-12-15T09:39:48.156Z,-5.19
2022-12-15T09:40:50.022Z,-5.19
2022-12-15T09:41:51.652Z,-5.16
2022-12-15T09:43:05.064Z,-5.15
2022-12-15T09:43:55.614Z,-5.17
2022-12-15T09:44:56.829Z,-5.17
2022-12-15T09:45:58.628Z,-5.13
2022-12-15T09:47:00.307Z,-5.12
2022-12-15T09:48:02.004Z,-5.11
2022-12-15T09:49:03.756Z,-5.08
2022-12-15T09:50:05.491Z,-5.09
2022-12-15T09:51:07.218Z,-5.07
2022-12-15T09:52:11.291Z,-5.06
2022-12-15T09:53:36.664Z,-5.07
2022-12-15T09:54:12.443Z,-5.05
2022-12-15T09:55:14.204Z,-5.05
2022-12-15T09:56:15.918Z,-5.04
2022-12-15T09:57:17.636Z,-5.04
2022-12-15T09:58:19.352Z,-5.04
2022-12-15T09:59:21.095Z,-5.04
2022-12-15T10:00:22.842Z,-5.03
2022-12-15T10:01:24.614Z,-5.03
2022-12-15T10:02:27.670Z,-5.02
2022-12-15T10:03:28.372Z,-5.01
2022-12-15T10:04:29.805Z,-5.02
2022-12-15T10:05:57.304Z,-5.02
2022-12-15T10:06:33.647Z,-5.03
2022-12-15T10:07:34.957Z,-5
2022-12-15T10:08:36.670Z,-5
2022-12-15T10:09:38.436Z,-5
2022-12-15T10:10:41.196Z,-4.98
2022-12-15T10:11:41.863Z,-4.96
2022-12-15T10:12:52.860Z,-4.95
2022-12-15T10:13:45.287Z,-4.94
2022-12-15T10:15:50.285Z,-4.91
2022-12-15T10:16:50.530Z,-4.9
2022-12-15T10:17:52.219Z,-4.89
2022-12-15T10:18:59.227Z,-4.88
2022-12-15T10:19:55.663Z,-4.88
2022-12-15T10:20:57.384Z,-4.87
2022-12-15T10:21:59.139Z,-4.88
2022-12-15T10:23:00.838Z,-4.87
2022-12-15T10:24:02.638Z,-4.86
2022-12-15T10:26:06.008Z,-4.82
2022-12-15T10:27:07.763Z,-4.81
2022-12-15T10:28:09.449Z,-4.79
2022-12-15T10:29:11.217Z,-4.78
2022-12-15T10:30:12.957Z,-4.76
2022-12-15T10:31:14.717Z,-4.75
2022-12-15T10:32:16.346Z,-4.74
2022-12-15T10:33:18.089Z,-4.75
2022-12-15T10:34:21.286Z,-4.74
2022-12-15T10:35:21.521Z,-4.71
2022-12-15T10:36:23.253Z,-4.71
2022-12-15T10:37:26.301Z,-4.69
2022-12-15T10:38:26.723Z,-4.66
2022-12-15T10:39:28.430Z,-4.65
2022-12-15T10:40:31.321Z,-4.63
2022-12-15T10:41:31.919Z,-4.6
2022-12-15T10:42:33.608Z,-4.58
2022-12-15T10:43:37.030Z,-4.56
2022-12-15T10:44:37.050Z,-4.55
2022-12-15T10:45:38.814Z,-4.52
2022-12-15T10:46:40.576Z,-4.5
2022-12-15T10:47:42.232Z,-4.5
2022-12-15T10:48:43.970Z,-4.46
2022-12-15T10:49:45.664Z,-4.45
2022-12-15T10:50:50.099Z,-4.44
2022-12-15T10:51:49.133Z,-4.41
2022-12-15T10:52:53.284Z,-4.38
2022-12-15T10:53:57.744Z,-4.34
2022-12-15T10:54:59.445Z,-4.33
2022-12-15T10:56:01.165Z,-4.32
2022-12-15T10:57:02.898Z,-4.29
2022-12-15T10:58:04.620Z,-4.28
2022-12-15T10:59:06.402Z,-4.25
2022-12-15T11:00:07.117Z,-4.26
2022-12-15T11:01:09.920Z,-4.24
2022-12-15T11:02:11.682Z,-4.21
2022-12-15T11:03:13.357Z,-4.2
2022-12-15T11:04:15.016Z,-4.19
2022-12-15T11:05:16.712Z,-4.17
2022-12-15T11:06:18.420Z,-4.16
2022-12-15T11:07:20.147Z,-4.17
2022-12-15T11:08:21.862Z,-4.14
2022-12-15T11:09:23.652Z,-4.14
2022-12-15T11:10:25.323Z,-4.11
2022-12-15T11:11:27.044Z,-4.09
2022-12-15T11:12:28.778Z,-4.08
2022-12-15T11:13:34.779Z,-4.08
2022-12-15T11:14:32.240Z,-4.06
2022-12-15T11:15:33.970Z,-4.06
2022-12-15T11:16:35.666Z,-4.03
2022-12-15T11:17:37.405Z,-4.02
2022-12-15T11:18:39.129Z,-3.99
2022-12-15T11:19:40.862Z,-4.02
2022-12-15T11:20:42.582Z,-4.01
2022-12-15T11:21:45.631Z,-3.99
2022-12-15T11:22:46.035Z,-3.97
2022-12-15T11:23:48.705Z,-3.95
2022-12-15T11:24:49.469Z,-3.95
2022-12-15T11:25:51.261Z,-3.94
2022-12-15T11:26:52.944Z,-3.94
2022-12-15T11:27:54.639Z,-3.93
2022-12-15T11:28:56.376Z,-3.91
2022-12-15T11:29:58.112Z,-3.91
2022-12-15T11:30:59.915Z,-3.91
2022-12-15T11:32:07.015Z,-3.95
2022-12-15T11:33:03.289Z,-3.99
2022-12-15T11:34:05.010Z,-3.99
2022-12-15T11:35:06.750Z,-4
2022-12-15T11:36:08.444Z,-3.99
2022-12-15T11:37:10.157Z,-3.99
2022-12-15T11:38:11.881Z,-3.98
2022-12-15T11:39:13.690Z,-3.96
2022-12-15T11:40:15.363Z,-3.97
2022-12-15T11:41:17.078Z,-3.97
2022-12-15T11:42:18.801Z,-3.98
2022-12-15T11:43:20.530Z,-3.95
2022-12-15T11:44:22.244Z,-3.97
2022-12-15T11:45:24.062Z,-3.95
2022-12-15T11:46:25.786Z,-3.93
2022-12-15T11:47:27.491Z,-3.92
2022-12-15T11:48:29.240Z,-3.91
2022-12-15T11:49:31.176Z,-3.91
2022-12-15T11:50:32.664Z,-3.9
2022-12-15T11:51:34.388Z,-3.86
2022-12-15T11:52:36.110Z,-3.86
2022-12-15T11:53:37.845Z,-3.86
2022-12-15T11:54:38.919Z,-3.84
2022-12-15T11:55:41.793Z,-3.84
2022-12-15T11:56:43.040Z,-3.82
2022-12-15T11:57:44.764Z,-3.85
2022-12-15T11:58:46.497Z,-3.85
2022-12-15T11:59:48.230Z,-3.83
2022-12-15T12:00:49.971Z,-3.83
2022-12-15T12:01:55.505Z,-3.85
2022-12-15T12:02:53.458Z,-3.87
2022-12-15T12:03:55.165Z,-3.85
2022-12-15T12:04:56.963Z,-3.82
2022-12-15T12:05:58.653Z,-3.82
2022-12-15T12:07:00.424Z,-3.8
2022-12-15T12:08:02.145Z,-3.78
2022-12-15T12:09:03.859Z,-3.79
2022-12-15T12:10:05.564Z,-3.74
2022-12-15T12:11:07.356Z,-3.71
2022-12-15T12:12:09.023Z,-3.69
2022-12-15T12:13:10.755Z,-3.65
2022-12-15T12:14:12.498Z,-3.62
2022-12-15T12:15:14.212Z,-3.62
2022-12-15T12:16:15.969Z,-3.62
2022-12-15T12:17:17.695Z,-3.6
2022-12-15T12:18:19.409Z,-3.6
2022-12-15T12:19:21.201Z,-3.59
2022-12-15T12:20:22.878Z,-3.6
2022-12-15T12:21:24.648Z,-3.57
2022-12-15T12:22:26.339Z,-3.6
2022-12-15T12:23:28.072Z,-3.59
2022-12-15T12:24:29.802Z,-3.58
2022-12-15T12:25:31.543Z,-3.56
2022-12-15T12:26:33.298Z,-3.56
2022-12-15T12:27:35.015Z,-3.52
2022-12-15T12:28:36.757Z,-3.49
2022-12-15T12:29:43.903Z,-3.47
2022-12-15T12:30:50.639Z,-3.45
2022-12-15T12:31:52.280Z,-3.42
2022-12-15T12:32:53.959Z,-3.4
2022-12-15T12:33:55.696Z,-3.39
2022-12-15T12:35:31.898Z,-3.38
2022-12-15T12:35:59.176Z,-3.38
2022-12-15T12:37:00.913Z,-3.38
2022-12-15T12:38:04.023Z,-3.36
2022-12-15T12:39:04.381Z,-3.37
2022-12-15T12:40:11.508Z,-3.33
2022-12-15T12:41:12.977Z,-3.32
2022-12-15T12:42:14.728Z,-3.29
2022-12-15T12:43:16.436Z,-3.3
2022-12-15T12:44:18.178Z,-3.29
2022-12-15T12:45:19.921Z,-3.31
2022-12-15T12:46:21.647Z,-3.32
2022-12-15T12:47:23.417Z,-3.32
2022-12-15T12:48:25.120Z,-3.32
2022-12-15T12:49:27.221Z,-3.32
2022-12-15T12:50:28.570Z,-3.31
2022-12-15T12:51:30.301Z,-3.3
2022-12-15T12:52:32.059Z,-3.32
2022-12-15T12:53:34.217Z,-3.34
2022-12-15T12:54:35.509Z,-3.36
2022-12-15T12:55:37.246Z,-3.37
2022-12-15T12:56:38.983Z,-3.41
2022-12-15T12:57:40.742Z,-3.39
2022-12-15T12:58:42.439Z,-3.41
2022-12-15T12:59:44.199Z,-3.43
2022-12-15T13:00:46.116Z,-3.45
2022-12-15T13:01:47.834Z,-3.42
2022-12-15T13:03:51.113Z,-3.42
2022-12-15T13:04:52.904Z,-3.42
2022-12-15T13:05:54.607Z,-3.41
2022-12-15T13:06:57.389Z,-3.4
2022-12-15T13:07:59.570Z,-3.42
2022-12-15T13:09:01.698Z,-3.42
2022-12-15T13:10:06.694Z,-3.44
2022-12-15T13:11:08.408Z,-3.43
2022-12-15T13:12:27.462Z,-3.43
2022-12-15T13:13:12.748Z,-3.45
2022-12-15T13:15:16.189Z,-3.51
2022-12-15T13:16:17.943Z,-3.52
2022-12-15T13:17:27.318Z,-3.54
2022-12-15T13:18:21.399Z,-3.52
2022-12-15T13:19:23.118Z,-3.52
2022-12-15T13:20:24.846Z,-3.52
2022-12-15T13:21:26.583Z,-3.51
2022-12-15T13:22:28.324Z,-3.5
2022-12-15T13:23:30.540Z,-3.49
2022-12-15T13:24:31.784Z,-3.47
2022-12-15T13:25:33.692Z,-3.47
2022-12-15T13:26:35.258Z,-3.43